createdAt,value
2018-05-29T00:01:09.259Z,26.80
2018-05-29T00:03:37.463Z,26.80
2018-05-29T00:06:06.051Z,26.80
2018-05-29T00:08:35.137Z,26.80
2018-05-29T00:11:03.342Z,26.70
2018-05-29T00:13:36.967Z,26.70
2018-05-29T00:16:10.740Z,26.70
2018-05-29T00:18:44.566Z,26.60
2018-05-29T00:21:18.207Z,26.60
2018-05-29T00:23:52.066Z,26.50
2018-05-29T00:26:25.818Z,26.60
2018-05-29T00:28:59.690Z,26.50
2018-05-29T00:31:33.493Z,26.60
2018-05-29T00:34:07.214Z,26.50
2018-05-29T00:36:41.818Z,26.50
2018-05-29T00:39:15.761Z,26.40
2018-05-29T00:41:49.626Z,26.50
2018-05-29T00:44:23.387Z,26.40
2018-05-29T00:46:57.150Z,26.40
2018-05-29T00:49:30.969Z,26.30
2018-05-29T00:52:04.823Z,26.30
2018-05-29T00:54:38.597Z,26.20
2018-05-29T00:57:07.654Z,26.30
2018-05-29T00:59:36.635Z,26.30
2018-05-29T01:02:10.363Z,26.30
2018-05-29T01:04:43.974Z,26.40
2018-05-29T01:07:18.677Z,26.30
2018-05-29T01:09:52.520Z,26.20
2018-05-29T01:12:26.401Z,26.20
2018-05-29T01:15:01.028Z,26.10
2018-05-29T01:17:34.824Z,26.10
2018-05-29T01:20:08.580Z,26.20
2018-05-29T01:22:42.633Z,26.20
2018-05-29T01:25:16.540Z,26.10
2018-05-29T01:27:50.361Z,26.10
2018-05-29T01:30:24.193Z,26.10
2018-05-29T01:32:57.898Z,26.10
2018-05-29T01:35:32.318Z,26.00
2018-05-29T01:38:06.236Z,26.00
2018-05-29T01:40:40.157Z,26.00
2018-05-29T01:43:14.038Z,26.00
2018-05-29T01:45:47.762Z,26.10
2018-05-29T01:48:21.574Z,26.20
2018-05-29T01:50:55.419Z,26.40
2018-05-29T01:53:29.164Z,26.50
2018-05-29T01:56:02.957Z,26.60
2018-05-29T01:58:36.814Z,26.60
2018-05-29T02:01:10.607Z,26.60
2018-05-29T02:03:44.391Z,26.70
2018-05-29T02:06:18.245Z,26.70
2018-05-29T02:08:52.781Z,26.70
2018-05-29T02:11:27.363Z,26.70
2018-05-29T02:14:01.916Z,26.80
2018-05-29T02:16:35.616Z,26.70
2018-05-29T02:19:10.209Z,26.80
2018-05-29T02:21:43.940Z,26.80
2018-05-29T02:24:17.788Z,26.80
2018-05-29T02:26:52.256Z,26.80
2018-05-29T02:29:26.060Z,26.80
2018-05-29T02:31:59.854Z,26.80
2018-05-29T02:34:34.359Z,26.90
2018-05-29T02:37:08.141Z,26.80
2018-05-29T02:39:41.895Z,26.90
2018-05-29T02:42:15.752Z,26.90
2018-05-29T02:44:49.813Z,26.90
2018-05-29T02:47:24.431Z,26.90
2018-05-29T02:49:58.168Z,26.90
2018-05-29T02:52:32.829Z,26.90
2018-05-29T02:55:06.614Z,26.90
2018-05-29T02:57:40.480Z,26.90
2018-05-29T03:00:15.005Z,26.90
2018-05-29T03:02:49.451Z,26.90
2018-05-29T03:05:23.218Z,26.90
2018-05-29T03:07:56.990Z,26.90
2018-05-29T03:10:30.655Z,26.90
2018-05-29T03:13:04.654Z,26.90
2018-05-29T03:15:38.411Z,26.90
2018-05-29T03:18:12.145Z,26.90
2018-05-29T03:20:46.093Z,26.90
2018-05-29T03:23:20.056Z,27.00
2018-05-29T03:25:54.724Z,26.90
2018-05-29T03:28:28.380Z,26.90
2018-05-29T03:31:02.224Z,26.90
2018-05-29T03:33:36.041Z,26.90
2018-05-29T03:36:09.934Z,27.00
2018-05-29T03:38:43.725Z,27.00
2018-05-29T03:41:17.429Z,26.90
2018-05-29T03:43:51.147Z,27.00
2018-05-29T03:46:24.961Z,27.00
2018-05-29T03:48:59.412Z,27.00
2018-05-29T03:51:33.190Z,27.00
2018-05-29T03:54:07.124Z,27.00
2018-05-29T03:56:40.960Z,27.00
2018-05-29T03:59:15.605Z,27.00
2018-05-29T04:01:50.138Z,27.00
2018-05-29T04:04:23.782Z,27.00
2018-05-29T04:06:57.607Z,27.00
2018-05-29T04:09:31.343Z,27.00
2018-05-29T04:12:05.192Z,27.00
2018-05-29T04:14:38.977Z,27.00
2018-05-29T04:17:12.802Z,27.00
2018-05-29T04:19:46.606Z,27.00
2018-05-29T04:22:21.252Z,27.10
2018-05-29T04:24:54.999Z,27.10
2018-05-29T04:27:28.768Z,27.10
2018-05-29T04:30:02.615Z,27.10
2018-05-29T04:32:37.124Z,27.10
2018-05-29T04:35:10.995Z,27.10
2018-05-29T04:37:45.484Z,27.10
2018-05-29T04:40:19.169Z,27.10
2018-05-29T04:42:52.819Z,27.10
2018-05-29T04:45:26.606Z,27.10
2018-05-29T04:48:00.437Z,27.10
2018-05-29T04:50:34.238Z,27.10
2018-05-29T04:53:07.901Z,27.10
2018-05-29T04:55:41.699Z,27.10
2018-05-29T04:58:15.398Z,27.10
2018-05-29T05:00:49.227Z,27.10
2018-05-29T05:03:23.036Z,27.10
2018-05-29T05:05:56.843Z,27.10
2018-05-29T05:08:30.522Z,27.10
2018-05-29T05:11:04.429Z,27.20
2018-05-29T05:13:38.180Z,27.20
2018-05-29T05:16:12.718Z,27.20
2018-05-29T05:18:46.410Z,27.20
2018-05-29T05:21:20.024Z,27.20
2018-05-29T05:23:53.831Z,27.20
2018-05-29T05:26:27.706Z,27.20
2018-05-29T05:29:01.509Z,27.20
2018-05-29T05:31:35.293Z,27.20
2018-05-29T05:34:09.960Z,27.20
2018-05-29T05:36:43.575Z,27.20
2018-05-29T05:39:17.450Z,27.20
2018-05-29T05:41:51.086Z,27.20
2018-05-29T05:44:25.664Z,27.30
2018-05-29T05:46:59.346Z,27.20
2018-05-29T05:49:33.190Z,27.30
2018-05-29T05:52:08.225Z,27.30
2018-05-29T05:54:42.062Z,27.20
2018-05-29T05:57:15.832Z,27.30
2018-05-29T05:59:49.654Z,27.30
2018-05-29T06:02:24.105Z,27.30
2018-05-29T06:04:57.806Z,27.30
2018-05-29T06:07:31.634Z,27.30
2018-05-29T06:10:05.481Z,27.30
2018-05-29T06:12:39.186Z,27.30
2018-05-29T06:15:13.566Z,27.30
2018-05-29T06:17:48.164Z,27.30
2018-05-29T06:20:22.112Z,27.30
2018-05-29T06:22:55.836Z,27.40
2018-05-29T06:25:30.348Z,27.40
2018-05-29T06:28:04.021Z,27.40
2018-05-29T06:30:37.754Z,27.40
2018-05-29T06:33:11.623Z,27.40
2018-05-29T06:35:45.439Z,27.40
2018-05-29T06:38:20.014Z,27.50
2018-05-29T06:40:53.959Z,27.50
2018-05-29T06:43:27.663Z,27.50
2018-05-29T06:46:01.462Z,27.50
2018-05-29T06:48:35.282Z,27.50
2018-05-29T06:51:10.663Z,27.50
2018-05-29T06:53:44.360Z,27.60
2018-05-29T06:56:18.991Z,27.60
2018-05-29T06:58:52.767Z,27.60
2018-05-29T07:01:27.201Z,27.60
2018-05-29T07:04:00.950Z,27.60
2018-05-29T07:06:34.781Z,27.60
2018-05-29T07:09:08.630Z,27.70
2018-05-29T07:11:42.346Z,27.70
2018-05-29T07:14:16.037Z,27.70
2018-05-29T07:16:49.973Z,27.70
2018-05-29T07:19:23.809Z,27.80
2018-05-29T07:21:57.562Z,27.70
2018-05-29T07:24:31.270Z,27.60
2018-05-29T07:27:05.071Z,27.30
2018-05-29T07:29:38.917Z,27.10
2018-05-29T07:32:12.773Z,26.80
2018-05-29T07:34:46.645Z,26.60
2018-05-29T07:37:20.466Z,26.60
2018-05-29T07:39:48.683Z,26.70
2018-05-29T07:42:16.834Z,26.50
2018-05-29T07:44:45.009Z,26.60
2018-05-29T07:47:13.224Z,26.70
2018-05-29T07:49:42.173Z,26.60
2018-05-29T07:52:10.456Z,26.50
2018-05-29T07:54:38.732Z,26.60
2018-05-29T07:57:06.943Z,26.80
2018-05-29T07:59:35.145Z,27.10
2018-05-29T08:02:03.365Z,27.10
2018-05-29T08:04:31.591Z,27.30
2018-05-29T08:07:00.538Z,27.40
2018-05-29T08:09:28.731Z,27.40
2018-05-29T08:11:57.730Z,27.50
2018-05-29T08:14:25.962Z,27.40
2018-05-29T08:16:54.182Z,27.50
2018-05-29T08:19:23.218Z,27.60
2018-05-29T08:21:51.479Z,27.60
2018-05-29T08:24:19.754Z,27.60
2018-05-29T08:26:48.032Z,27.70
2018-05-29T08:29:16.224Z,27.70
2018-05-29T08:31:44.402Z,27.80
2018-05-29T08:34:12.652Z,27.80
2018-05-29T08:36:40.852Z,27.90
2018-05-29T08:39:09.152Z,27.90
2018-05-29T08:41:37.413Z,28.00
2018-05-29T08:44:05.662Z,28.00
2018-05-29T08:46:33.873Z,28.00
2018-05-29T08:49:02.895Z,28.10
2018-05-29T08:51:31.198Z,28.10
2018-05-29T08:53:59.422Z,28.10
2018-05-29T08:56:28.374Z,28.20
2018-05-29T08:58:57.130Z,28.20
2018-05-29T09:01:25.338Z,28.20
2018-05-29T09:03:53.595Z,28.20
2018-05-29T09:06:22.548Z,28.30
2018-05-29T09:08:51.486Z,28.40
2018-05-29T09:11:19.738Z,28.30
2018-05-29T09:13:47.976Z,28.20
2018-05-29T09:16:16.841Z,28.20
2018-05-29T09:18:45.071Z,28.20
2018-05-29T09:21:13.266Z,28.10
2018-05-29T09:23:41.495Z,28.10
2018-05-29T09:26:10.640Z,28.00
2018-05-29T09:28:38.888Z,28.00
2018-05-29T09:31:07.155Z,28.10
2018-05-29T09:33:35.400Z,28.00
2018-05-29T09:36:04.375Z,28.10
2018-05-29T09:38:32.605Z,28.10
2018-05-29T09:41:00.801Z,28.10
2018-05-29T09:43:29.012Z,28.10
2018-05-29T09:45:58.028Z,28.20
2018-05-29T09:48:26.167Z,28.20
2018-05-29T09:50:54.348Z,28.30
2018-05-29T09:53:23.377Z,28.40
2018-05-29T09:55:51.575Z,28.30
2018-05-29T09:58:19.827Z,28.40
2018-05-29T10:00:48.916Z,28.50
2018-05-29T10:03:17.191Z,28.60
2018-05-29T10:05:46.094Z,28.60
2018-05-29T10:08:14.284Z,28.70
2018-05-29T10:10:42.532Z,28.70
2018-05-29T10:13:11.481Z,28.80
2018-05-29T10:15:39.638Z,28.80
2018-05-29T10:18:07.839Z,28.80
2018-05-29T10:20:36.027Z,28.90
2018-05-29T10:23:04.289Z,28.90
2018-05-29T10:25:33.359Z,29.00
2018-05-29T10:28:01.552Z,29.00
2018-05-29T10:30:30.533Z,29.10
2018-05-29T10:32:59.558Z,29.10
2018-05-29T10:35:27.770Z,29.10
2018-05-29T10:37:57.081Z,29.20
2018-05-29T10:40:25.283Z,29.20
2018-05-29T10:42:54.696Z,29.20
2018-05-29T10:45:22.881Z,29.30
2018-05-29T10:47:51.285Z,29.30
2018-05-29T10:50:23.505Z,31.60
2018-05-29T10:52:51.748Z,33.20
2018-05-29T10:55:19.960Z,34.10
2018-05-29T10:57:48.198Z,34.70
2018-05-29T11:00:17.175Z,35.20
2018-05-29T11:02:45.401Z,35.20
2018-05-29T11:05:13.650Z,35.40
2018-05-29T11:07:42.638Z,35.90
2018-05-29T11:10:10.867Z,35.90
2018-05-29T11:12:39.136Z,35.70
2018-05-29T11:15:07.936Z,35.40
2018-05-29T11:17:36.181Z,35.00
2018-05-29T11:20:04.622Z,35.50
2018-05-29T11:22:32.856Z,35.80
2018-05-29T11:25:01.051Z,36.10
2018-05-29T11:27:29.350Z,36.10
2018-05-29T11:29:57.551Z,36.10
2018-05-29T11:32:26.406Z,36.20
2018-05-29T11:34:55.398Z,36.40
2018-05-29T11:37:24.403Z,36.30
2018-05-29T11:39:53.447Z,36.40
2018-05-29T11:42:21.640Z,36.40
2018-05-29T11:44:49.969Z,36.80
2018-05-29T11:47:19.001Z,36.50
2018-05-29T11:49:47.210Z,36.50
2018-05-29T11:52:16.761Z,36.80
2018-05-29T11:54:45.012Z,36.70
2018-05-29T11:57:13.266Z,36.70
2018-05-29T11:59:41.513Z,36.70
2018-05-29T12:02:09.728Z,37.10
2018-05-29T12:04:37.956Z,37.20
2018-05-29T12:07:06.180Z,37.20
2018-05-29T12:09:34.457Z,37.00
2018-05-29T12:12:14.615Z,37.30
2018-05-29T12:14:42.798Z,37.70
2018-05-29T12:17:11.080Z,38.00
2018-05-29T12:19:40.193Z,37.60
2018-05-29T12:22:08.545Z,37.80
2018-05-29T12:24:36.906Z,37.40
2018-05-29T12:27:05.198Z,37.40
2018-05-29T12:29:33.458Z,37.30
2018-05-29T12:32:02.569Z,37.40
2018-05-29T12:34:32.402Z,37.90
2018-05-29T12:37:00.710Z,37.90
2018-05-29T12:39:28.918Z,37.90
2018-05-29T12:41:57.169Z,38.20
2018-05-29T12:44:26.179Z,38.10
2018-05-29T12:46:54.479Z,38.10
2018-05-29T12:49:22.802Z,37.50
2018-05-29T12:51:51.009Z,36.50
2018-05-29T12:54:19.253Z,36.30
2018-05-29T12:56:47.676Z,36.20
2018-05-29T12:59:20.060Z,36.90
2018-05-29T13:01:48.276Z,37.30
2018-05-29T13:04:18.111Z,37.00
2018-05-29T13:06:46.464Z,37.00
2018-05-29T13:09:15.464Z,36.40
2018-05-29T13:11:44.485Z,36.00
2018-05-29T13:14:12.729Z,35.90
2018-05-29T13:16:41.732Z,35.90
2018-05-29T13:19:10.740Z,35.70
2018-05-29T13:21:38.994Z,35.70
2018-05-29T13:24:07.215Z,35.80
2018-05-29T13:26:35.484Z,35.90
2018-05-29T13:29:03.770Z,36.10
2018-05-29T13:31:31.972Z,35.80
2018-05-29T13:34:00.967Z,35.90
2018-05-29T13:36:29.986Z,35.60
2018-05-29T13:38:58.315Z,35.60
2018-05-29T13:41:26.777Z,35.30
2018-05-29T13:43:55.037Z,34.90
2018-05-29T13:46:23.281Z,34.60
2018-05-29T13:48:52.253Z,34.60
2018-05-29T13:51:21.238Z,35.00
2018-05-29T13:53:49.456Z,35.00
2018-05-29T13:56:17.702Z,35.30
2018-05-29T13:58:46.835Z,33.50
2018-05-29T14:01:15.039Z,33.40
2018-05-29T14:03:43.624Z,33.30
2018-05-29T14:06:11.921Z,33.30
2018-05-29T14:08:40.934Z,33.10
2018-05-29T14:11:09.878Z,33.00
2018-05-29T14:13:38.113Z,33.00
2018-05-29T14:16:06.344Z,32.60
2018-05-29T14:18:34.558Z,32.60
2018-05-29T14:21:02.762Z,32.60
2018-05-29T14:23:30.964Z,32.50
2018-05-29T14:25:59.182Z,32.40
2018-05-29T14:28:27.507Z,32.50
2018-05-29T14:30:55.842Z,32.50
2018-05-29T14:33:24.064Z,32.30
2018-05-29T14:35:53.052Z,32.00
2018-05-29T14:38:21.345Z,32.00
2018-05-29T14:40:50.353Z,31.50
2018-05-29T14:43:19.319Z,31.50
2018-05-29T14:45:48.300Z,31.50
2018-05-29T14:48:17.282Z,31.50
2018-05-29T14:50:45.529Z,31.50
2018-05-29T14:53:13.733Z,31.60
2018-05-29T14:55:42.035Z,31.50
2018-05-29T14:58:11.062Z,31.50
2018-05-29T15:00:39.297Z,31.50
2018-05-29T15:03:08.305Z,31.50
2018-05-29T15:05:37.300Z,31.00
2018-05-29T15:08:05.501Z,31.00
2018-05-29T15:10:33.777Z,30.90
2018-05-29T15:13:02.069Z,30.70
2018-05-29T15:15:30.365Z,30.70
2018-05-29T15:17:59.278Z,30.50
2018-05-29T15:20:27.522Z,30.60
2018-05-29T15:22:56.611Z,30.50
2018-05-29T15:25:24.863Z,30.50
2018-05-29T15:27:53.185Z,30.40
2018-05-29T15:30:22.188Z,30.00
2018-05-29T15:32:50.513Z,30.00
2018-05-29T15:35:18.745Z,29.40
2018-05-29T15:37:46.947Z,29.20
2018-05-29T15:40:15.133Z,28.60
2018-05-29T15:42:43.409Z,28.10
2018-05-29T17:31:19.511Z,24.90
2018-05-29T17:33:47.810Z,24.90
2018-05-29T17:36:16.051Z,24.80
2018-05-29T17:38:44.304Z,24.60
2018-05-29T17:41:12.557Z,24.40
2018-05-29T17:43:41.571Z,24.20
2018-05-29T17:46:09.861Z,24.20
2018-05-29T17:48:38.150Z,24.00
2018-05-29T17:51:07.343Z,24.20
2018-05-29T17:53:35.768Z,24.30
2018-05-29T17:56:04.009Z,24.30
2018-05-29T17:58:32.287Z,24.20
2018-05-29T18:01:00.765Z,24.10
2018-05-29T18:03:29.295Z,24.00
2018-05-29T18:05:57.810Z,24.10
2018-05-29T18:08:26.094Z,24.10
2018-05-29T18:10:54.532Z,24.10
2018-05-29T18:13:23.024Z,24.00
2018-05-29T18:15:51.291Z,23.90
2018-05-29T18:18:19.536Z,23.90
2018-05-29T18:20:47.812Z,23.90
2018-05-29T18:23:16.094Z,24.10
2018-05-29T18:25:45.389Z,24.00
2018-05-29T18:28:14.433Z,24.00
2018-05-29T18:30:42.788Z,24.00
2018-05-29T18:33:11.045Z,24.30
2018-05-29T18:35:40.055Z,25.80
2018-05-29T18:38:08.283Z,25.80
2018-05-29T18:40:36.485Z,26.10
2018-05-29T18:43:05.468Z,26.40
2018-05-29T18:45:34.475Z,26.50
2018-05-29T18:48:03.513Z,26.60
2018-05-29T18:50:32.626Z,26.60
2018-05-29T18:53:00.847Z,26.70
2018-05-29T18:55:29.082Z,26.80
2018-05-29T18:57:57.318Z,26.80
2018-05-29T19:00:25.598Z,26.90
2018-05-29T19:02:53.795Z,27.00
2018-05-29T19:05:21.989Z,27.00
2018-05-29T19:07:50.971Z,27.00
2018-05-29T19:10:19.201Z,27.00
2018-05-29T19:12:47.393Z,27.10
2018-05-29T19:15:15.635Z,27.10
2018-05-29T19:17:43.828Z,27.10
2018-05-29T19:20:12.070Z,27.10
2018-05-29T19:22:40.292Z,27.10
2018-05-29T19:25:08.547Z,27.20
2018-05-29T19:27:36.795Z,27.10
2018-05-29T19:30:05.793Z,27.20
2018-05-29T19:32:34.004Z,27.20
2018-05-29T19:35:02.179Z,27.20
2018-05-29T19:37:30.370Z,27.20
2018-05-29T19:39:58.564Z,27.20
2018-05-29T19:42:26.869Z,27.20
2018-05-29T19:44:55.090Z,27.20
2018-05-29T19:47:23.330Z,27.20
2018-05-29T19:49:51.611Z,27.20
2018-05-29T19:52:19.865Z,27.20
2018-05-29T19:54:48.025Z,27.20
2018-05-29T19:57:16.231Z,27.20
2018-05-29T19:59:44.460Z,27.20
2018-05-29T20:02:13.488Z,27.10
2018-05-29T20:04:41.740Z,27.10
2018-05-29T20:07:09.957Z,27.10
2018-05-29T20:09:38.160Z,27.10
2018-05-29T20:12:07.172Z,27.10
2018-05-29T20:14:35.318Z,27.10
2018-05-29T20:17:03.520Z,27.10
2018-05-29T20:19:31.750Z,27.10
2018-05-29T20:22:00.763Z,27.10
2018-05-29T20:24:29.712Z,27.00
2018-05-29T20:26:57.929Z,27.00
2018-05-29T20:29:26.923Z,27.00
2018-05-29T20:31:55.149Z,27.00
2018-05-29T20:34:23.623Z,27.00
2018-05-29T20:36:51.944Z,27.00
2018-05-29T20:39:20.086Z,27.00
2018-05-29T20:41:48.314Z,26.90
2018-05-29T20:44:16.546Z,26.90
2018-05-29T20:46:44.801Z,27.00
2018-05-29T20:49:12.997Z,27.00
2018-05-29T20:51:41.222Z,27.00
2018-05-29T20:54:09.468Z,27.00
2018-05-29T20:56:37.672Z,26.90
2018-05-29T20:59:05.932Z,27.00
2018-05-29T21:01:34.910Z,26.90
2018-05-29T21:04:03.889Z,26.90
2018-05-29T21:06:32.159Z,26.90
2018-05-29T21:09:00.430Z,26.90
2018-05-29T21:11:28.755Z,26.90
2018-05-29T21:13:57.084Z,26.80
2018-05-29T21:16:25.936Z,26.90
2018-05-29T21:18:54.150Z,26.80
2018-05-29T21:21:22.341Z,27.00
2018-05-29T21:23:51.731Z,27.20
2018-05-29T21:26:20.706Z,27.30
2018-05-29T21:28:48.888Z,27.20
2018-05-29T21:31:17.158Z,27.30
2018-05-29T21:33:45.414Z,27.30
2018-05-29T21:36:13.642Z,27.30
2018-05-29T21:38:42.589Z,27.40
2018-05-29T21:41:10.853Z,27.40
2018-05-29T21:43:39.048Z,27.40
2018-05-29T21:46:07.346Z,27.40
2018-05-29T21:48:36.389Z,27.50
2018-05-29T21:51:05.383Z,27.50
2018-05-29T21:53:33.617Z,27.50
2018-05-29T21:56:02.644Z,27.50
2018-05-29T21:58:30.898Z,27.40
2018-05-29T22:00:59.096Z,27.50
2018-05-29T22:03:27.296Z,27.50
2018-05-29T22:05:55.545Z,27.50
2018-05-29T22:08:23.824Z,27.50
2018-05-29T22:10:52.302Z,24.80
2018-05-29T22:13:20.785Z,24.00
2018-05-29T22:15:49.216Z,24.20
2018-05-29T22:18:19.000Z,23.00
2018-05-29T22:20:48.487Z,23.00
2018-05-29T22:23:18.728Z,21.90
2018-05-29T22:25:56.685Z,21.60
2018-05-29T22:28:27.464Z,21.90
2018-05-29T22:30:56.628Z,21.70
2018-05-29T22:33:25.385Z,21.70
2018-05-29T22:46:37.214Z,18.90
2018-05-29T22:49:05.958Z,18.30
2018-05-29T22:57:41.082Z,18.10
2018-05-29T23:00:09.925Z,18.10
2018-05-29T23:02:39.370Z,18.10
2018-05-29T23:05:13.074Z,18.00
2018-05-29T23:07:46.673Z,18.00
2018-05-29T23:16:22.972Z,17.90
2018-05-29T23:18:53.397Z,18.00
2018-05-29T23:21:29.776Z,17.90
2018-05-29T23:24:13.111Z,18.00
2018-05-29T23:26:45.095Z,17.90
2018-05-29T23:29:13.941Z,17.90
2018-05-29T23:31:43.721Z,18.00
2018-05-29T23:34:13.049Z,17.90
2018-05-29T23:36:43.399Z,18.00
2018-05-29T23:39:11.941Z,17.90
2018-05-29T23:41:40.951Z,17.80
2018-05-29T23:44:09.249Z,17.80
2018-05-29T23:46:37.513Z,17.80
2018-05-29T23:49:11.342Z,17.80
2018-05-29T23:51:45.893Z,17.80
2018-05-29T23:54:20.626Z,17.70
2018-05-29T23:56:54.401Z,17.70
2018-05-29T23:59:28.393Z,17.70
